createdAt,value
2018-06-19T00:01:35.870Z,101306.59
2018-06-19T00:04:05.915Z,101311.39
2018-06-19T00:06:35.866Z,101312.77
2018-06-19T00:09:11.107Z,101313.67
2018-06-19T00:11:42.180Z,101309.23
2018-06-19T00:14:12.222Z,101310.81
2018-06-19T00:16:42.871Z,101312.78
2018-06-19T00:19:17.761Z,101299.86
2018-06-19T00:21:54.876Z,101304.69
2018-06-19T00:24:28.618Z,101311.55
2018-06-19T00:26:59.136Z,101309.16
2018-06-19T00:29:29.099Z,101316.78
2018-06-19T00:31:59.127Z,101315.17
2018-06-19T00:34:29.882Z,101312.35
2018-06-19T00:36:59.710Z,101295.27
2018-06-19T00:39:29.622Z,101307.69
2018-06-19T00:41:59.463Z,101313.12
2018-06-19T00:44:29.412Z,101315.61
2018-06-19T00:46:59.278Z,101311.42
2018-06-19T00:49:30.068Z,101310.41
2018-06-19T00:52:00.855Z,101310.08
2018-06-19T00:54:30.767Z,101318.83
2018-06-19T00:57:01.159Z,101318.43
2018-06-19T00:59:31.818Z,101326.59
2018-06-19T01:02:02.779Z,101335.53
2018-06-19T01:04:32.817Z,101328.20
2018-06-19T01:07:02.923Z,101328.14
2018-06-19T01:09:33.835Z,101323.73
2018-06-19T01:12:03.827Z,101321.33
2018-06-19T01:14:33.759Z,101320.96
2018-06-19T01:17:03.745Z,101324.55
2018-06-19T01:19:33.694Z,101320.19
2018-06-19T01:22:04.398Z,101321.17
2018-06-19T01:24:35.531Z,101323.06
2018-06-19T01:27:05.493Z,101321.48
2018-06-19T01:29:36.325Z,101318.02
2018-06-19T01:34:52.387Z,101320.77
2018-06-19T01:37:22.364Z,101323.23
2018-06-19T01:39:52.187Z,101323.10
2018-06-19T01:42:22.132Z,101319.36
2018-06-19T01:44:52.015Z,101320.85
2018-06-19T01:47:21.969Z,101324.51
2018-06-19T01:49:52.635Z,101327.14
2018-06-19T01:52:22.515Z,101320.80
2018-06-19T01:54:53.292Z,101320.16
2018-06-19T01:57:23.132Z,101314.37
2018-06-19T01:59:53.019Z,101324.31
2018-06-19T02:02:23.022Z,101317.16
2018-06-19T02:04:52.923Z,101312.84
2018-06-19T02:07:22.907Z,101319.25
2018-06-19T02:09:53.636Z,101314.97
2018-06-19T02:12:23.622Z,101323.33
2018-06-19T02:14:53.586Z,101317.25
2018-06-19T02:17:24.156Z,101320.06
2018-06-19T02:19:53.966Z,101319.41
2018-06-19T02:22:23.919Z,101317.59
2018-06-19T02:24:53.886Z,101327.80
2018-06-19T02:27:23.941Z,101324.53
2018-06-19T02:29:53.863Z,101330.42
2018-06-19T02:32:23.767Z,101330.81
2018-06-19T02:34:53.727Z,101334.03
2018-06-19T02:37:23.649Z,101336.20
2018-06-19T02:39:53.888Z,101341.94
2018-06-19T02:42:23.832Z,101337.72
2018-06-19T02:44:53.782Z,101340.62
2018-06-19T02:47:24.427Z,101343.83
2018-06-19T02:49:54.319Z,101346.83
2018-06-19T02:52:24.255Z,101345.31
2018-06-19T02:54:56.014Z,101355.93
2018-06-19T02:57:25.947Z,101351.37
2018-06-19T02:59:55.809Z,101352.86
2018-06-19T03:02:25.687Z,101346.27
2018-06-19T03:04:55.578Z,101353.42
2018-06-19T03:07:25.537Z,101363.73
2018-06-19T03:09:55.559Z,101358.29
2018-06-19T03:12:25.556Z,101355.93
2018-06-19T03:14:55.443Z,101358.71
2018-06-19T03:17:25.412Z,101358.54
2018-06-19T03:19:55.450Z,101359.08
2018-06-19T03:22:25.645Z,101362.62
2018-06-19T03:24:55.473Z,101364.16
2018-06-19T03:27:25.384Z,101358.98
2018-06-19T03:29:56.302Z,101358.62
2018-06-19T03:32:26.204Z,101354.36
2018-06-19T03:34:56.080Z,101355.56
2018-06-19T03:37:25.916Z,101362.13
2018-06-19T03:39:55.842Z,101365.42
2018-06-19T03:42:25.700Z,101371.34
2018-06-19T03:44:55.658Z,101376.36
2018-06-19T03:47:25.615Z,101368.97
2018-06-19T03:49:56.709Z,101382.37
2018-06-19T03:52:26.683Z,101382.64
2018-06-19T03:54:56.841Z,101380.95
2018-06-19T03:57:27.753Z,101387.91
2018-06-19T03:59:57.723Z,101385.95
2018-06-19T04:02:28.525Z,101394.66
2018-06-19T04:04:59.441Z,101390.64
2018-06-19T04:07:29.403Z,101397.43
2018-06-19T04:09:59.364Z,101396.02
2018-06-19T04:12:29.272Z,101400.81
2018-06-19T04:14:59.435Z,101398.00
2018-06-19T04:17:31.234Z,101404.42
2018-06-19T04:20:01.211Z,101398.61
2018-06-19T04:22:31.740Z,101396.28
2018-06-19T04:25:02.222Z,101397.61
2018-06-19T04:27:32.374Z,101400.81
2018-06-19T04:30:02.277Z,101408.81
2018-06-19T04:32:32.163Z,101413.03
2018-06-19T04:35:02.813Z,101412.52
2018-06-19T04:37:32.972Z,101413.20
2018-06-19T04:40:03.071Z,101413.88
2018-06-19T04:42:35.565Z,101410.77
2018-06-19T04:45:05.920Z,101413.94
2018-06-19T04:47:35.904Z,101409.73
2018-06-19T04:50:06.063Z,101408.04
2018-06-19T04:52:36.657Z,101414.83
2018-06-19T04:55:06.768Z,101413.23
2018-06-19T04:57:37.207Z,101414.47
2018-06-19T05:00:07.243Z,101411.45
2018-06-19T05:02:37.223Z,101406.62
2018-06-19T05:05:07.295Z,101409.86
2018-06-19T05:07:39.871Z,101414.36
2018-06-19T05:10:11.378Z,101413.30
2018-06-19T05:12:41.518Z,101410.61
2018-06-19T05:15:11.537Z,101422.22
2018-06-19T05:17:41.499Z,101419.58
2018-06-19T05:22:49.508Z,101420.00
2018-06-19T05:28:21.773Z,101423.27
2018-06-19T05:30:51.896Z,101418.67
2018-06-19T05:33:21.818Z,101428.06
2018-06-19T05:35:51.795Z,101428.12
2018-06-19T05:38:22.761Z,101427.32
2018-06-19T05:40:53.503Z,101430.32
2018-06-19T05:43:23.520Z,101433.37
2018-06-19T05:45:54.755Z,101446.73
2018-06-19T05:48:25.117Z,101443.13
2018-06-19T05:50:55.537Z,101433.13
2018-06-19T05:53:25.891Z,101438.33
2018-06-19T05:55:55.927Z,101435.42
2018-06-19T05:58:27.028Z,101435.86
2018-06-19T06:00:57.131Z,101430.36
2018-06-19T06:03:27.124Z,101443.23
2018-06-19T06:05:57.320Z,101441.44
2018-06-19T06:08:27.204Z,101443.70
2018-06-19T06:10:57.033Z,101451.92
2018-06-19T06:13:26.826Z,101451.00
2018-06-19T06:15:56.944Z,101456.59
2018-06-19T06:18:26.895Z,101460.92
2018-06-19T06:20:56.962Z,101464.19
2018-06-19T06:23:27.060Z,101463.30
2018-06-19T06:25:57.554Z,101465.92
2018-06-19T06:28:27.476Z,101466.70
2018-06-19T06:30:57.645Z,101468.45
2018-06-19T06:33:27.743Z,101472.52
2018-06-19T06:35:57.875Z,101472.09
2018-06-19T06:38:28.078Z,101471.30
2018-06-19T06:40:58.545Z,101475.05
2018-06-19T06:43:29.449Z,101475.09
2018-06-19T06:45:59.993Z,101481.53
2018-06-19T06:48:30.444Z,101488.53
2018-06-19T06:51:00.573Z,101479.84
2018-06-19T06:53:30.496Z,101490.37
2018-06-19T06:56:00.423Z,101492.67
2018-06-19T06:58:30.420Z,101489.27
2018-06-19T07:01:24.468Z,101487.81
2018-06-19T07:03:54.573Z,101491.30
2018-06-19T07:06:24.598Z,101491.40
2018-06-19T07:08:54.580Z,101493.45
2018-06-19T07:11:24.700Z,101496.50
2018-06-19T07:13:54.991Z,101494.31
2018-06-19T07:16:25.073Z,101501.73
2018-06-19T07:21:57.869Z,101498.42
2018-06-19T07:24:27.925Z,101499.47
2018-06-19T07:30:03.563Z,101505.73
2018-06-19T07:32:33.703Z,101507.75
2018-06-19T07:35:09.540Z,101505.36
2018-06-19T07:37:39.608Z,101507.95
2018-06-19T07:40:28.091Z,101507.98
2018-06-19T07:43:01.719Z,101507.11
2018-06-19T07:45:31.824Z,101508.80
2018-06-19T07:50:55.319Z,101520.02
2018-06-19T07:53:25.819Z,101514.91
2018-06-19T07:59:56.542Z,101513.27
2018-06-19T08:02:26.655Z,101521.64
2018-06-19T08:04:56.832Z,101526.17
2018-06-19T08:07:42.751Z,101530.56
2018-06-19T08:10:12.877Z,101527.39
2018-06-19T08:12:47.177Z,101526.07
2018-06-19T08:15:17.661Z,101527.39
2018-06-19T08:17:47.729Z,101529.08
2018-06-19T08:20:17.727Z,101533.33
2018-06-19T08:22:47.836Z,101539.86
2018-06-19T08:25:36.094Z,101542.89
2018-06-19T08:28:06.175Z,101548.53
2018-06-19T08:30:36.551Z,101547.56
2018-06-19T08:33:06.788Z,101550.74
2018-06-19T08:35:36.900Z,101552.43
2018-06-19T08:38:06.904Z,101556.05
2018-06-19T08:40:36.969Z,101554.28
2018-06-19T08:43:07.052Z,101553.00
2018-06-19T08:49:06.461Z,101555.67
2018-06-19T08:51:36.576Z,101559.25
2018-06-19T08:54:06.624Z,101559.66
2018-06-19T08:56:37.011Z,101558.40
2018-06-19T09:02:17.936Z,101559.59
2018-06-19T09:04:48.164Z,101562.53
2018-06-19T09:10:28.043Z,101567.91
2018-06-19T09:13:14.229Z,101572.77
2018-06-19T09:15:44.626Z,101574.98
2018-06-19T09:24:35.216Z,101574.13
2018-06-19T09:27:23.744Z,101576.03
2018-06-19T09:33:03.288Z,101577.88
2018-06-19T09:35:33.306Z,101573.93
2018-06-19T09:38:03.323Z,101578.83
2018-06-19T09:40:33.385Z,101575.08
2018-06-19T09:43:03.543Z,101576.39
2018-06-19T09:45:33.518Z,101584.20
2018-06-19T09:51:14.008Z,101579.41
2018-06-19T09:53:44.086Z,101579.20
2018-06-19T09:59:38.035Z,101580.00
2018-06-19T10:08:37.901Z,101582.81
2018-06-19T10:11:07.939Z,101582.34
2018-06-19T10:16:37.796Z,101586.77
2018-06-19T10:19:07.721Z,101583.66
2018-06-19T10:21:37.660Z,101582.24
2018-06-19T10:24:07.832Z,101583.86
2018-06-19T10:26:37.973Z,101587.27
2018-06-19T10:29:24.524Z,101586.77
2018-06-19T10:32:23.889Z,101584.80
2018-06-19T10:34:53.873Z,101587.54
2018-06-19T10:37:24.226Z,101593.28
2018-06-19T10:39:54.279Z,101589.42
2018-06-19T10:42:24.293Z,101596.95
2018-06-19T10:44:54.183Z,101592.64
2018-06-19T10:47:24.179Z,101589.22
2018-06-19T10:49:56.280Z,101595.55
2018-06-19T10:52:34.432Z,101597.15
2018-06-19T10:55:05.127Z,101595.27
2018-06-19T11:00:43.189Z,101600.38
2018-06-19T11:03:13.202Z,101606.42
2018-06-19T11:05:43.168Z,101608.50
2018-06-19T11:08:14.726Z,101607.38
2018-06-19T11:10:44.663Z,101613.02
2018-06-19T11:13:14.723Z,101609.89
2018-06-19T11:15:46.295Z,101606.77
2018-06-19T11:18:16.453Z,101606.03
2018-06-19T11:20:46.364Z,101608.28
2018-06-19T11:23:16.346Z,101604.03
2018-06-19T11:31:13.106Z,101606.38
2018-06-19T11:33:43.502Z,101604.92
2018-06-19T11:36:13.546Z,101603.79
2018-06-19T11:38:43.319Z,101602.77
2018-06-19T11:41:13.677Z,101603.87
2018-06-19T11:43:44.392Z,101603.64
2018-06-19T11:46:14.428Z,101607.61
2018-06-19T11:48:44.432Z,101601.47
2018-06-19T11:51:15.042Z,101608.27
2018-06-19T11:53:45.739Z,101599.74
2018-06-19T11:56:15.763Z,101606.30
2018-06-19T11:58:45.866Z,101601.92
2018-06-19T12:01:15.993Z,101604.27
2018-06-19T12:03:45.923Z,101599.94
2018-06-19T12:06:16.050Z,101600.29
2018-06-19T12:08:45.970Z,101599.70
2018-06-19T12:11:16.011Z,101593.09
2018-06-19T12:13:46.288Z,101591.94
2018-06-19T12:16:16.159Z,101586.23
2018-06-19T12:19:11.507Z,101594.17
2018-06-19T12:21:42.728Z,101591.70
2018-06-19T12:24:12.711Z,101596.22
2018-06-19T12:26:43.498Z,101593.55
2018-06-19T12:29:13.536Z,101590.20
2018-06-19T12:31:43.583Z,101592.54
2018-06-19T12:34:14.797Z,101590.85
2018-06-19T12:36:44.765Z,101592.12
2018-06-19T12:39:15.063Z,101591.53
2018-06-19T12:41:46.205Z,101590.91
2018-06-19T12:44:16.057Z,101589.87
2018-06-19T12:46:46.813Z,101580.18
2018-06-19T12:49:26.591Z,101585.84
2018-06-19T12:52:13.933Z,101590.65
2018-06-19T12:55:13.723Z,101587.66
2018-06-19T12:57:43.635Z,101586.86
2018-06-19T13:00:13.623Z,101585.17
2018-06-19T13:03:05.848Z,101586.30
2018-06-19T13:05:55.543Z,101601.02
2018-06-19T13:08:30.675Z,101589.34
2018-06-19T13:11:01.050Z,101593.41
2018-06-19T13:13:47.545Z,101585.99
2018-06-19T13:16:34.115Z,101593.20
2018-06-19T13:19:24.787Z,101599.27
2018-06-19T13:21:54.836Z,101599.55
2018-06-19T13:24:24.797Z,101601.55
2018-06-19T13:26:55.076Z,101598.42
2018-06-19T13:29:45.672Z,101592.16
2018-06-19T13:32:24.902Z,101589.06
2018-06-19T13:34:55.100Z,101592.08
2018-06-19T13:37:25.636Z,101593.92
2018-06-19T13:41:10.456Z,101590.83
2018-06-19T13:43:57.734Z,101584.72
2018-06-19T13:46:27.803Z,101583.63
2018-06-19T13:48:57.802Z,101580.56
2018-06-19T13:51:28.170Z,101580.11
2018-06-19T13:53:58.013Z,101579.06
2018-06-19T13:58:35.704Z,101582.61
2018-06-19T14:01:05.924Z,101578.87
2018-06-19T14:03:35.717Z,101575.53
2018-06-19T14:06:05.661Z,101583.75
2018-06-19T14:11:04.156Z,101580.98
2018-06-19T14:13:34.293Z,101580.82
2018-06-19T14:16:04.447Z,101577.83
2018-06-19T14:18:34.616Z,101578.72
2018-06-19T14:21:04.729Z,101574.28
2018-06-19T14:23:35.038Z,101579.84
2018-06-19T14:29:14.873Z,101577.29
2018-06-19T14:31:44.773Z,101577.77
2018-06-19T14:34:14.897Z,101567.46
2018-06-19T14:36:44.679Z,101570.25
2018-06-19T14:39:14.512Z,101567.84
2018-06-19T14:41:44.294Z,101573.99
2018-06-19T14:44:15.061Z,101576.77
2018-06-19T14:46:45.021Z,101574.86
2018-06-19T14:49:14.699Z,101574.86
2018-06-19T14:51:44.665Z,101571.77
2018-06-19T14:54:14.644Z,101570.89
2018-06-19T14:56:44.953Z,101573.41
2018-06-19T14:59:15.223Z,101570.67
2018-06-19T15:01:45.476Z,101569.06
2018-06-19T15:04:15.528Z,101564.48
2018-06-19T15:06:45.334Z,101567.05
2018-06-19T15:09:15.112Z,101575.22
2018-06-19T15:11:48.005Z,101569.17
2018-06-19T15:14:17.884Z,101570.41
2018-06-19T15:16:47.774Z,101568.98
2018-06-19T15:19:19.271Z,101562.70
2018-06-19T15:21:50.123Z,101567.36
2018-06-19T15:24:21.115Z,101568.64
2018-06-19T15:26:51.105Z,101568.66
2018-06-19T15:29:21.333Z,101567.31
2018-06-19T15:31:51.357Z,101566.12
2018-06-19T15:34:21.263Z,101565.37
2018-06-19T15:36:52.229Z,101568.52
2018-06-19T15:39:22.352Z,101568.16
2018-06-19T15:41:52.344Z,101568.02
2018-06-19T15:44:22.220Z,101565.99
2018-06-19T15:46:52.173Z,101566.22
2018-06-19T15:49:22.214Z,101556.44
2018-06-19T15:51:52.453Z,101555.30
2018-06-19T15:54:22.370Z,101555.76
2018-06-19T15:56:52.558Z,101548.69
2018-06-19T15:59:22.724Z,101549.08
2018-06-19T16:01:52.686Z,101550.02
2018-06-19T16:04:22.633Z,101551.39
2018-06-19T16:06:52.707Z,101549.45
2018-06-19T16:09:22.671Z,101549.44
2018-06-19T16:11:52.675Z,101542.46
2018-06-19T16:14:22.890Z,101544.94
2018-06-19T16:16:53.249Z,101545.47
2018-06-19T16:19:23.254Z,101541.27
2018-06-19T16:21:53.222Z,101543.44
2018-06-19T16:24:23.511Z,101551.27
2018-06-19T16:26:53.809Z,101544.40
2018-06-19T16:29:23.644Z,101546.94
2018-06-19T16:31:53.704Z,101550.91
2018-06-19T16:34:23.771Z,101550.20
2018-06-19T16:36:53.686Z,101551.13
2018-06-19T16:39:23.668Z,101548.86
2018-06-19T16:41:53.772Z,101552.45
2018-06-19T16:44:23.721Z,101549.22
2018-06-19T16:46:53.920Z,101548.13
2018-06-19T16:49:23.946Z,101542.33
2018-06-19T16:51:53.988Z,101544.49
2018-06-19T16:54:25.119Z,101550.28
2018-06-19T16:56:55.156Z,101546.79
2018-06-19T16:59:25.248Z,101548.34
2018-06-19T17:01:55.159Z,101546.56
2018-06-19T17:04:25.427Z,101548.39
2018-06-19T17:06:55.470Z,101545.11
2018-06-19T17:09:26.162Z,101541.92
2018-06-19T17:11:56.192Z,101543.36
2018-06-19T17:14:26.319Z,101546.75
2018-06-19T17:16:56.291Z,101543.97
2018-06-19T17:19:26.322Z,101550.86
2018-06-19T17:21:56.741Z,101551.86
2018-06-19T17:24:26.785Z,101549.00
2018-06-19T17:26:56.625Z,101539.22
2018-06-19T17:29:26.809Z,101540.66
2018-06-19T17:31:57.781Z,101545.95
2018-06-19T17:34:28.074Z,101545.40
2018-06-19T17:36:58.315Z,101546.37
2018-06-19T17:39:28.464Z,101535.73
2018-06-19T17:41:59.350Z,101539.73
2018-06-19T17:44:29.881Z,101537.07
2018-06-19T17:46:59.890Z,101540.77
2018-06-19T17:49:29.712Z,101542.61
2018-06-19T17:51:59.655Z,101543.11
2018-06-19T17:54:29.671Z,101545.40
2018-06-19T17:56:59.652Z,101539.22
2018-06-19T17:59:30.301Z,101540.02
2018-06-19T18:02:00.215Z,101541.92
2018-06-19T18:04:30.232Z,101542.59
2018-06-19T18:07:00.320Z,101541.45
2018-06-19T18:09:30.406Z,101540.06
2018-06-19T18:12:00.269Z,101540.97
2018-06-19T18:14:30.112Z,101536.91
2018-06-19T18:17:00.048Z,101531.48
2018-06-19T18:19:29.888Z,101537.87
2018-06-19T18:21:59.940Z,101542.28
2018-06-19T18:24:30.009Z,101541.86
2018-06-19T18:26:59.782Z,101538.20
2018-06-19T18:29:29.784Z,101537.36
2018-06-19T18:32:02.967Z,101535.90
2018-06-19T18:34:33.130Z,101538.30
2018-06-19T18:37:02.886Z,101536.43
2018-06-19T18:39:32.650Z,101540.74
2018-06-19T18:42:02.538Z,101536.47
2018-06-19T18:44:32.351Z,101536.86
2018-06-19T18:47:02.427Z,101536.48
2018-06-19T18:49:32.476Z,101535.11
2018-06-19T18:52:02.259Z,101540.55
2018-06-19T18:54:32.013Z,101535.90
2018-06-19T18:57:02.076Z,101537.80
2018-06-19T18:59:31.887Z,101543.10
2018-06-19T19:02:01.946Z,101540.45
2018-06-19T19:04:31.763Z,101542.11
2018-06-19T19:07:01.788Z,101549.01
2018-06-19T19:09:31.600Z,101538.58
2018-06-19T19:12:01.652Z,101543.20
2018-06-19T19:14:35.773Z,101540.91
2018-06-19T19:17:10.901Z,101544.31
2018-06-19T19:19:41.051Z,101544.61
2018-06-19T19:22:10.967Z,101543.85
2018-06-19T19:24:40.788Z,101540.98
2018-06-19T19:27:15.823Z,101537.45
2018-06-19T19:29:49.668Z,101539.61
2018-06-19T19:32:20.821Z,101546.92
2018-06-19T19:34:50.791Z,101542.35
2018-06-19T19:37:25.756Z,101540.97
2018-06-19T19:39:55.713Z,101538.17
2018-06-19T19:42:25.733Z,101542.75
2018-06-19T19:44:55.801Z,101546.17
2018-06-19T19:47:30.602Z,101548.82
2018-06-19T19:50:00.459Z,101556.27
2018-06-19T19:52:30.246Z,101555.05
2018-06-19T19:55:00.281Z,101557.13
2018-06-19T19:57:35.150Z,101552.20
2018-06-19T20:00:05.915Z,101559.91
2018-06-19T20:02:35.909Z,101559.80
2018-06-19T20:05:05.848Z,101561.39
2018-06-19T20:07:35.611Z,101564.95
2018-06-19T20:10:05.786Z,101564.36
2018-06-19T20:12:35.860Z,101574.47
2018-06-19T20:15:05.954Z,101578.64
2018-06-19T20:17:36.007Z,101580.41
2018-06-19T20:20:09.055Z,101576.77
2018-06-19T20:22:39.552Z,101580.05
2018-06-19T20:25:10.034Z,101583.91
2018-06-19T20:27:40.137Z,101578.97
2018-06-19T20:30:10.578Z,101578.23
2018-06-19T20:32:40.852Z,101576.07
2018-06-19T20:35:10.807Z,101581.45
2018-06-19T20:37:40.791Z,101581.06
2018-06-19T20:40:10.604Z,101578.93
2018-06-19T20:42:40.446Z,101577.48
2018-06-19T20:45:10.411Z,101586.15
2018-06-19T20:47:40.251Z,101580.91
2018-06-19T20:50:10.307Z,101583.41
2018-06-19T20:52:40.360Z,101580.89
2018-06-19T20:55:10.292Z,101586.70
2018-06-19T20:57:40.138Z,101582.50
2018-06-19T21:00:10.117Z,101587.23
2018-06-19T21:02:39.911Z,101586.83
2018-06-19T21:05:09.915Z,101592.61
2018-06-19T21:07:39.935Z,101587.06
2018-06-19T21:10:09.728Z,101586.59
2018-06-19T21:12:39.598Z,101588.95
2018-06-19T21:15:12.590Z,101585.11
2018-06-19T21:17:42.394Z,101585.98
2018-06-19T21:20:12.303Z,101589.80
2018-06-19T21:22:42.332Z,101595.00
2018-06-19T21:25:12.439Z,101595.48
2018-06-19T21:27:42.348Z,101587.55
2018-06-19T21:30:12.385Z,101589.95
2018-06-19T21:32:42.144Z,101584.77
2018-06-19T21:35:12.062Z,101587.39
2018-06-19T21:37:42.001Z,101583.62
2018-06-19T21:40:11.956Z,101594.57
2018-06-19T21:42:41.809Z,101584.34
2018-06-19T21:45:11.860Z,101587.52
2018-06-19T21:47:41.878Z,101579.99
2018-06-19T21:50:11.943Z,101582.05
2018-06-19T21:52:41.887Z,101573.63
2018-06-19T21:55:11.784Z,101573.63
2018-06-19T21:57:41.803Z,101579.80
2018-06-19T22:00:12.703Z,101574.22
2018-06-19T22:02:42.551Z,101575.06
2018-06-19T22:05:12.356Z,101565.80
2018-06-19T22:07:42.203Z,101570.25
2018-06-19T22:10:12.271Z,101566.72
2018-06-19T22:12:42.226Z,101568.88
2018-06-19T22:15:12.071Z,101568.93
2018-06-19T22:17:42.087Z,101567.80
2018-06-19T22:20:12.197Z,101570.12
2018-06-19T22:22:42.067Z,101570.05
2018-06-19T22:25:12.055Z,101573.83
2018-06-19T22:27:41.907Z,101575.06
2018-06-19T22:30:11.916Z,101577.64
2018-06-19T22:32:41.708Z,101571.52
2018-06-19T22:35:11.756Z,101577.81
2018-06-19T22:37:41.701Z,101574.75
2018-06-19T22:40:11.668Z,101573.94
2018-06-19T22:42:41.720Z,101573.03
2018-06-19T22:45:11.704Z,101571.12
2018-06-19T22:47:41.619Z,101568.87
2018-06-19T22:50:11.673Z,101570.02
2018-06-19T22:52:41.562Z,101574.02
2018-06-19T22:55:11.392Z,101575.34
2018-06-19T22:57:41.211Z,101569.66
2018-06-19T23:00:11.287Z,101568.58
2018-06-19T23:02:41.163Z,101571.12
2018-06-19T23:05:11.032Z,101565.83
2018-06-19T23:07:40.875Z,101570.39
2018-06-19T23:10:10.687Z,101569.58
2018-06-19T23:12:40.674Z,101569.69
2018-06-19T23:15:10.576Z,101570.17
2018-06-19T23:17:40.503Z,101574.92
2018-06-19T23:20:10.526Z,101562.96
2018-06-19T23:22:40.401Z,101567.27
2018-06-19T23:25:10.335Z,101569.88
2018-06-19T23:27:40.143Z,101568.37
2018-06-19T23:30:10.387Z,101577.59
2018-06-19T23:32:40.407Z,101567.78
2018-06-19T23:35:10.516Z,101566.45
2018-06-19T23:37:40.967Z,101564.09
2018-06-19T23:40:10.994Z,101562.63
2018-06-19T23:42:40.936Z,101558.83
2018-06-19T23:45:11.712Z,101567.19
2018-06-19T23:47:41.511Z,101557.25
2018-06-19T23:50:11.529Z,101556.36
2018-06-19T23:52:41.380Z,101553.12
2018-06-19T23:55:11.357Z,101550.27
2018-06-19T23:57:41.222Z,101552.44
